Herd, Kentucky
Current Conditions -  °F | °C
As of 7:53 AM on Saturday 20 Dec 2014 (Local Time) from KLOZ Reporting Station
Overcast Overcast  
Wind Chill: 25°   Ceiling: 8500
Heat Index: 30°   Visibility: 10mi
Dew Point: 23°   Wind: 5mph
Humidity: 75%   Direction: 40°NE
Pressure: 30.23"   Gusts: NA
Location:  37.346°N, 83.8503°W
Report Text: KLOZ 201253Z AUTO 04004KT 10SM FEW060 OVC085 M01/M05 A3023 RMK AO2 SLP245 T10111050
Loading
Personal Weather Stations






























Interactive Weather Map New forecast layout! Learn more

10-Day Weather Forecast

Advertisements
Track Severe Weather on mobile